sensor_id;sensor_type;location;lat;lon;timestamp;temperature;humidity
48589;DHT22;34369;51.174;6.738;2023-10-31T00:00:13;11.60;71.00
48589;DHT22;34369;51.174;6.738;2023-10-31T00:02:45;11.60;70.90
48589;DHT22;34369;51.174;6.738;2023-10-31T00:05:17;11.50;71.00
48589;DHT22;34369;51.174;6.738;2023-10-31T00:07:49;11.50;71.20
48589;DHT22;34369;51.174;6.738;2023-10-31T00:10:22;11.50;71.30
48589;DHT22;34369;51.174;6.738;2023-10-31T00:12:54;11.40;71.30
48589;DHT22;34369;51.174;6.738;2023-10-31T00:15:26;11.40;71.20
48589;DHT22;34369;51.174;6.738;2023-10-31T00:18:00;11.40;71.10
48589;DHT22;34369;51.174;6.738;2023-10-31T00:20:33;11.40;71.10
48589;DHT22;34369;51.174;6.738;2023-10-31T00:23:05;11.40;70.70
48589;DHT22;34369;51.174;6.738;2023-10-31T00:25:38;11.30;70.60
48589;DHT22;34369;51.174;6.738;2023-10-31T00:28:10;11.30;70.70
48589;DHT22;34369;51.174;6.738;2023-10-31T00:30:42;11.20;70.70
48589;DHT22;34369;51.174;6.738;2023-10-31T00:33:14;11.20;70.50
48589;DHT22;34369;51.174;6.738;2023-10-31T00:35:46;11.20;70.40
48589;DHT22;34369;51.174;6.738;2023-10-31T00:38:18;11.10;70.30
48589;DHT22;34369;51.174;6.738;2023-10-31T00:40:51;11.10;70.20
48589;DHT22;34369;51.174;6.738;2023-10-31T00:43:23;11.10;70.40
48589;DHT22;34369;51.174;6.738;2023-10-31T00:45:55;11.00;70.20
48589;DHT22;34369;51.174;6.738;2023-10-31T00:48:27;11.00;70.10
48589;DHT22;34369;51.174;6.738;2023-10-31T00:50:59;11.00;70.20
48589;DHT22;34369;51.174;6.738;2023-10-31T00:53:31;11.00;70.40
48589;DHT22;34369;51.174;6.738;2023-10-31T00:56:05;11.00;70.60
48589;DHT22;34369;51.174;6.738;2023-10-31T00:58:38;11.00;70.70
48589;DHT22;34369;51.174;6.738;2023-10-31T01:01:10;11.00;70.70
48589;DHT22;34369;51.174;6.738;2023-10-31T01:03:42;10.90;70.70
48589;DHT22;34369;51.174;6.738;2023-10-31T01:06:14;10.90;70.60
48589;DHT22;34369;51.174;6.738;2023-10-31T01:08:46;10.90;70.70
48589;DHT22;34369;51.174;6.738;2023-10-31T01:11:19;10.90;70.70
48589;DHT22;34369;51.174;6.738;2023-10-31T01:13:51;10.80;70.70
48589;DHT22;34369;51.174;6.738;2023-10-31T01:16:23;10.80;70.60
48589;DHT22;34369;51.174;6.738;2023-10-31T01:18:55;10.80;70.70
48589;DHT22;34369;51.174;6.738;2023-10-31T01:21:27;10.80;70.70
48589;DHT22;34369;51.174;6.738;2023-10-31T01:23:59;10.80;70.70
48589;DHT22;34369;51.174;6.738;2023-10-31T01:26:32;10.80;70.70
48589;DHT22;34369;51.174;6.738;2023-10-31T01:29:06;10.80;70.90
48589;DHT22;34369;51.174;6.738;2023-10-31T01:31:40;10.80;70.80
48589;DHT22;34369;51.174;6.738;2023-10-31T01:34:12;10.80;70.80
48589;DHT22;34369;51.174;6.738;2023-10-31T01:36:44;10.80;70.80
48589;DHT22;34369;51.174;6.738;2023-10-31T01:39:16;10.80;70.90
48589;DHT22;34369;51.174;6.738;2023-10-31T01:41:50;10.80;71.10
48589;DHT22;34369;51.174;6.738;2023-10-31T01:44:23;10.80;71.10
48589;DHT22;34369;51.174;6.738;2023-10-31T01:46:55;10.80;71.20
48589;DHT22;34369;51.174;6.738;2023-10-31T01:49:27;10.80;71.20
48589;DHT22;34369;51.174;6.738;2023-10-31T01:52:00;10.80;71.20
48589;DHT22;34369;51.174;6.738;2023-10-31T01:54:32;10.80;71.10
48589;DHT22;34369;51.174;6.738;2023-10-31T01:57:06;10.80;71.10
48589;DHT22;34369;51.174;6.738;2023-10-31T01:59:39;10.80;71.10
48589;DHT22;34369;51.174;6.738;2023-10-31T02:02:11;10.80;71.00
48589;DHT22;34369;51.174;6.738;2023-10-31T02:04:43;10.80;71.10
48589;DHT22;34369;51.174;6.738;2023-10-31T02:07:15;10.80;71.10
48589;DHT22;34369;51.174;6.738;2023-10-31T02:09:47;10.80;71.20
48589;DHT22;34369;51.174;6.738;2023-10-31T02:12:34;10.80;71.20
48589;DHT22;34369;51.174;6.738;2023-10-31T02:15:08;10.80;71.20
48589;DHT22;34369;51.174;6.738;2023-10-31T02:17:42;10.80;71.30
48589;DHT22;34369;51.174;6.738;2023-10-31T02:20:14;10.80;71.20
48589;DHT22;34369;51.174;6.738;2023-10-31T02:22:47;10.80;71.30
48589;DHT22;34369;51.174;6.738;2023-10-31T02:25:19;10.80;71.30
48589;DHT22;34369;51.174;6.738;2023-10-31T02:27:52;10.80;71.40
48589;DHT22;34369;51.174;6.738;2023-10-31T02:30:27;10.80;71.50
48589;DHT22;34369;51.174;6.738;2023-10-31T02:33:01;10.80;71.50
48589;DHT22;34369;51.174;6.738;2023-10-31T02:35:34;10.80;71.50
48589;DHT22;34369;51.174;6.738;2023-10-31T02:38:09;10.80;71.40
48589;DHT22;34369;51.174;6.738;2023-10-31T02:40:42;10.80;71.50
48589;DHT22;34369;51.174;6.738;2023-10-31T02:43:14;10.80;71.50
48589;DHT22;34369;51.174;6.738;2023-10-31T02:45:46;10.80;71.40
48589;DHT22;34369;51.174;6.738;2023-10-31T02:48:19;10.80;71.30
48589;DHT22;34369;51.174;6.738;2023-10-31T02:50:52;10.80;71.40
48589;DHT22;34369;51.174;6.738;2023-10-31T02:53:27;10.80;71.30
48589;DHT22;34369;51.174;6.738;2023-10-31T02:55:59;10.80;71.20
48589;DHT22;34369;51.174;6.738;2023-10-31T02:58:55;10.70;71.20
48589;DHT22;34369;51.174;6.738;2023-10-31T03:01:30;10.70;71.50
48589;DHT22;34369;51.174;6.738;2023-10-31T03:04:06;10.70;71.20
48589;DHT22;34369;51.174;6.738;2023-10-31T03:06:38;10.70;71.20
48589;DHT22;34369;51.174;6.738;2023-10-31T03:09:12;10.70;71.20
48589;DHT22;34369;51.174;6.738;2023-10-31T03:11:46;10.70;71.20
48589;DHT22;34369;51.174;6.738;2023-10-31T03:14:27;10.60;71.30
48589;DHT22;34369;51.174;6.738;2023-10-31T03:17:11;10.70;71.40
48589;DHT22;34369;51.174;6.738;2023-10-31T03:19:49;10.70;71.30
48589;DHT22;34369;51.174;6.738;2023-10-31T03:22:22;10.70;71.40
48589;DHT22;34369;51.174;6.738;2023-10-31T03:24:58;10.60;71.30
48589;DHT22;34369;51.174;6.738;2023-10-31T03:27:32;10.60;71.40
48589;DHT22;34369;51.174;6.738;2023-10-31T03:30:07;10.60;71.40
48589;DHT22;34369;51.174;6.738;2023-10-31T03:32:42;10.70;71.40
48589;DHT22;34369;51.174;6.738;2023-10-31T03:35:16;10.70;71.40
48589;DHT22;34369;51.174;6.738;2023-10-31T03:37:50;10.60;71.30
48589;DHT22;34369;51.174;6.738;2023-10-31T03:40:25;10.60;71.30
48589;DHT22;34369;51.174;6.738;2023-10-31T03:42:58;10.60;71.30
48589;DHT22;34369;51.174;6.738;2023-10-31T03:45:32;10.70;71.20
48589;DHT22;34369;51.174;6.738;2023-10-31T03:48:08;10.60;71.20
48589;DHT22;34369;51.174;6.738;2023-10-31T03:50:41;10.60;71.20
48589;DHT22;34369;51.174;6.738;2023-10-31T03:53:27;10.60;71.20
48589;DHT22;34369;51.174;6.738;2023-10-31T03:56:27;10.60;71.10
48589;DHT22;34369;51.174;6.738;2023-10-31T03:59:03;10.70;71.10
48589;DHT22;34369;51.174;6.738;2023-10-31T04:02:19;10.70;70.90
48589;DHT22;34369;51.174;6.738;2023-10-31T04:04:54;10.60;70.80
48589;DHT22;34369;51.174;6.738;2023-10-31T04:08:07;10.70;71.00
48589;DHT22;34369;51.174;6.738;2023-10-31T04:10:42;10.70;71.20
48589;DHT22;34369;51.174;6.738;2023-10-31T04:16:38;10.70;71.00
48589;DHT22;34369;51.174;6.738;2023-10-31T04:19:27;10.70;71.00
48589;DHT22;34369;51.174;6.738;2023-10-31T04:22:09;10.70;71.10
48589;DHT22;34369;51.174;6.738;2023-10-31T04:25:16;10.70;70.90
48589;DHT22;34369;51.174;6.738;2023-10-31T04:27:52;10.70;70.90
48589;DHT22;34369;51.174;6.738;2023-10-31T04:30:36;10.70;71.00
48589;DHT22;34369;51.174;6.738;2023-10-31T04:36:40;10.70;71.10
48589;DHT22;34369;51.174;6.738;2023-10-31T04:39:22;10.70;71.00
48589;DHT22;34369;51.174;6.738;2023-10-31T04:41:57;10.70;71.20
48589;DHT22;34369;51.174;6.738;2023-10-31T04:44:33;10.70;71.20
48589;DHT22;34369;51.174;6.738;2023-10-31T04:47:17;10.70;71.20
48589;DHT22;34369;51.174;6.738;2023-10-31T04:50:13;10.80;71.20
48589;DHT22;34369;51.174;6.738;2023-10-31T04:52:47;10.80;71.10
48589;DHT22;34369;51.174;6.738;2023-10-31T04:55:31;10.80;71.00
48589;DHT22;34369;51.174;6.738;2023-10-31T04:58:17;10.80;71.00
48589;DHT22;34369;51.174;6.738;2023-10-31T05:01:13;10.80;71.00
48589;DHT22;34369;51.174;6.738;2023-10-31T05:03:55;10.80;71.00
48589;DHT22;34369;51.174;6.738;2023-10-31T05:06:29;10.80;71.00
48589;DHT22;34369;51.174;6.738;2023-10-31T05:09:01;10.80;71.00
48589;DHT22;34369;51.174;6.738;2023-10-31T05:11:33;10.80;71.00
48589;DHT22;34369;51.174;6.738;2023-10-31T05:14:08;10.80;71.00
48589;DHT22;34369;51.174;6.738;2023-10-31T05:16:42;10.80;70.90
48589;DHT22;34369;51.174;6.738;2023-10-31T05:19:15;10.80;70.80
48589;DHT22;34369;51.174;6.738;2023-10-31T05:21:49;10.80;70.80
48589;DHT22;34369;51.174;6.738;2023-10-31T05:24:21;10.80;70.80
48589;DHT22;34369;51.174;6.738;2023-10-31T05:27:20;10.80;70.70
48589;DHT22;34369;51.174;6.738;2023-10-31T05:29:59;10.80;70.60
48589;DHT22;34369;51.174;6.738;2023-10-31T05:32:32;10.80;70.50
48589;DHT22;34369;51.174;6.738;2023-10-31T05:35:06;10.80;70.50
48589;DHT22;34369;51.174;6.738;2023-10-31T05:37:42;10.80;70.50
48589;DHT22;34369;51.174;6.738;2023-10-31T05:40:16;10.80;70.40
48589;DHT22;34369;51.174;6.738;2023-10-31T05:42:48;10.80;70.50
48589;DHT22;34369;51.174;6.738;2023-10-31T05:45:21;10.80;70.40
48589;DHT22;34369;51.174;6.738;2023-10-31T05:47:55;10.80;70.40
48589;DHT22;34369;51.174;6.738;2023-10-31T05:50:28;10.80;70.50
48589;DHT22;34369;51.174;6.738;2023-10-31T05:53:02;10.80;70.40
48589;DHT22;34369;51.174;6.738;2023-10-31T05:55:41;10.80;70.60
48589;DHT22;34369;51.174;6.738;2023-10-31T05:58:14;10.80;70.70
48589;DHT22;34369;51.174;6.738;2023-10-31T06:01:02;10.80;70.80
48589;DHT22;34369;51.174;6.738;2023-10-31T06:03:35;10.80;71.20
48589;DHT22;34369;51.174;6.738;2023-10-31T06:06:13;10.80;71.20
48589;DHT22;34369;51.174;6.738;2023-10-31T06:12:52;10.70;71.50
48589;DHT22;34369;51.174;6.738;2023-10-31T06:16:32;10.70;71.00
48589;DHT22;34369;51.174;6.738;2023-10-31T06:19:36;10.60;71.10
48589;DHT22;34369;51.174;6.738;2023-10-31T06:22:38;10.60;71.40
48589;DHT22;34369;51.174;6.738;2023-10-31T06:32:46;10.50;71.60
48589;DHT22;34369;51.174;6.738;2023-10-31T06:35:44;10.50;71.50
48589;DHT22;34369;51.174;6.738;2023-10-31T06:38:22;10.50;71.40
48589;DHT22;34369;51.174;6.738;2023-10-31T06:41:58;10.50;71.60
48589;DHT22;34369;51.174;6.738;2023-10-31T06:44:38;10.50;71.80
48589;DHT22;34369;51.174;6.738;2023-10-31T06:47:24;10.50;71.70
48589;DHT22;34369;51.174;6.738;2023-10-31T06:50:02;10.40;71.90
48589;DHT22;34369;51.174;6.738;2023-10-31T06:53:04;10.40;71.90
48589;DHT22;34369;51.174;6.738;2023-10-31T06:59:53;10.50;72.20
48589;DHT22;34369;51.174;6.738;2023-10-31T07:02:43;10.50;71.90
48589;DHT22;34369;51.174;6.738;2023-10-31T07:05:28;10.50;71.90
48589;DHT22;34369;51.174;6.738;2023-10-31T07:08:50;10.50;71.70
48589;DHT22;34369;51.174;6.738;2023-10-31T07:11:53;10.50;72.00
48589;DHT22;34369;51.174;6.738;2023-10-31T07:15:30;10.50;71.90
48589;DHT22;34369;51.174;6.738;2023-10-31T07:18:33;10.50;71.80
48589;DHT22;34369;51.174;6.738;2023-10-31T07:21:38;10.50;72.00
48589;DHT22;34369;51.174;6.738;2023-10-31T07:24:54;10.50;72.00
48589;DHT22;34369;51.174;6.738;2023-10-31T07:27:57;10.50;71.90
48589;DHT22;34369;51.174;6.738;2023-10-31T07:33:45;10.50;71.90
48589;DHT22;34369;51.174;6.738;2023-10-31T07:36:23;10.50;72.10
48589;DHT22;34369;51.174;6.738;2023-10-31T07:38:59;10.50;72.10
48589;DHT22;34369;51.174;6.738;2023-10-31T07:41:36;10.50;72.20
48589;DHT22;34369;51.174;6.738;2023-10-31T07:44:14;10.50;72.20
48589;DHT22;34369;51.174;6.738;2023-10-31T07:46:53;10.50;72.20
48589;DHT22;34369;51.174;6.738;2023-10-31T07:49:42;10.50;72.20
48589;DHT22;34369;51.174;6.738;2023-10-31T07:52:37;10.60;72.30
48589;DHT22;34369;51.174;6.738;2023-10-31T07:55:16;10.60;72.10
48589;DHT22;34369;51.174;6.738;2023-10-31T07:57:58;10.60;71.90
48589;DHT22;34369;51.174;6.738;2023-10-31T08:00:41;10.60;71.80
48589;DHT22;34369;51.174;6.738;2023-10-31T08:03:20;10.60;71.60
48589;DHT22;34369;51.174;6.738;2023-10-31T08:06:13;10.60;71.50
48589;DHT22;34369;51.174;6.738;2023-10-31T08:09:01;10.60;71.50
48589;DHT22;34369;51.174;6.738;2023-10-31T08:11:58;10.60;71.70
48589;DHT22;34369;51.174;6.738;2023-10-31T08:14:34;10.70;71.70
48589;DHT22;34369;51.174;6.738;2023-10-31T08:17:12;10.80;71.50
48589;DHT22;34369;51.174;6.738;2023-10-31T08:19:49;10.80;71.60
48589;DHT22;34369;51.174;6.738;2023-10-31T08:22:29;10.80;71.40
48589;DHT22;34369;51.174;6.738;2023-10-31T08:25:15;10.80;71.60
48589;DHT22;34369;51.174;6.738;2023-10-31T08:27:51;11.00;71.50
48589;DHT22;34369;51.174;6.738;2023-10-31T08:30:29;11.00;71.80
48589;DHT22;34369;51.174;6.738;2023-10-31T08:37:25;11.20;71.70
48589;DHT22;34369;51.174;6.738;2023-10-31T08:40:36;11.40;70.80
48589;DHT22;34369;51.174;6.738;2023-10-31T08:43:28;11.50;70.50
48589;DHT22;34369;51.174;6.738;2023-10-31T08:46:21;11.50;70.10
48589;DHT22;34369;51.174;6.738;2023-10-31T08:49:20;11.60;69.70
48589;DHT22;34369;51.174;6.738;2023-10-31T08:51:58;11.60;69.10
48589;DHT22;34369;51.174;6.738;2023-10-31T08:54:45;11.60;69.30
48589;DHT22;34369;51.174;6.738;2023-10-31T08:57:32;11.60;69.00
48589;DHT22;34369;51.174;6.738;2023-10-31T09:00:11;11.50;68.80
48589;DHT22;34369;51.174;6.738;2023-10-31T09:03:06;11.50;69.10
48589;DHT22;34369;51.174;6.738;2023-10-31T09:05:50;11.50;68.70
48589;DHT22;34369;51.174;6.738;2023-10-31T09:08:28;11.50;68.90
48589;DHT22;34369;51.174;6.738;2023-10-31T09:11:09;11.50;69.00
48589;DHT22;34369;51.174;6.738;2023-10-31T09:13:49;11.40;69.30
48589;DHT22;34369;51.174;6.738;2023-10-31T09:16:29;11.40;69.20
48589;DHT22;34369;51.174;6.738;2023-10-31T09:19:26;11.40;69.20
48589;DHT22;34369;51.174;6.738;2023-10-31T09:22:03;11.40;69.10
48589;DHT22;34369;51.174;6.738;2023-10-31T09:24:41;11.50;69.30
48589;DHT22;34369;51.174;6.738;2023-10-31T09:27:20;11.50;69.20
48589;DHT22;34369;51.174;6.738;2023-10-31T09:29:59;11.50;69.20
48589;DHT22;34369;51.174;6.738;2023-10-31T09:32:36;11.50;69.10
48589;DHT22;34369;51.174;6.738;2023-10-31T09:35:16;11.60;69.20
48589;DHT22;34369;51.174;6.738;2023-10-31T09:38:14;11.60;69.40
48589;DHT22;34369;51.174;6.738;2023-10-31T09:41:32;11.70;69.60
48589;DHT22;34369;51.174;6.738;2023-10-31T09:44:25;11.80;69.50
48589;DHT22;34369;51.174;6.738;2023-10-31T09:51:13;12.10;68.90
48589;DHT22;34369;51.174;6.738;2023-10-31T09:54:07;12.30;69.10
48589;DHT22;34369;51.174;6.738;2023-10-31T09:56:48;12.50;69.00
48589;DHT22;34369;51.174;6.738;2023-10-31T09:59:25;12.60;68.50
48589;DHT22;34369;51.174;6.738;2023-10-31T10:02:23;12.70;67.90
48589;DHT22;34369;51.174;6.738;2023-10-31T10:05:12;12.90;67.40
48589;DHT22;34369;51.174;6.738;2023-10-31T10:08:38;13.00;67.40
48589;DHT22;34369;51.174;6.738;2023-10-31T10:11:43;13.00;67.20
48589;DHT22;34369;51.174;6.738;2023-10-31T10:14:50;13.10;65.50
48589;DHT22;34369;51.174;6.738;2023-10-31T10:17:27;13.10;66.20
48589;DHT22;34369;51.174;6.738;2023-10-31T10:24:35;13.10;65.30
48589;DHT22;34369;51.174;6.738;2023-10-31T10:27:40;13.20;65.10
48589;DHT22;34369;51.174;6.738;2023-10-31T10:30:55;13.30;65.20
48589;DHT22;34369;51.174;6.738;2023-10-31T10:33:34;13.30;65.80
48589;DHT22;34369;51.174;6.738;2023-10-31T10:40:46;13.50;64.70
48589;DHT22;34369;51.174;6.738;2023-10-31T10:44:20;13.60;64.90
48589;DHT22;34369;51.174;6.738;2023-10-31T10:47:38;13.80;64.60
48589;DHT22;34369;51.174;6.738;2023-10-31T10:57:48;14.30;62.20
48589;DHT22;34369;51.174;6.738;2023-10-31T11:00:59;14.40;62.30
48589;DHT22;34369;51.174;6.738;2023-10-31T11:03:52;14.50;61.30
48589;DHT22;34369;51.174;6.738;2023-10-31T11:07:00;14.50;61.80
48589;DHT22;34369;51.174;6.738;2023-10-31T11:09:50;14.50;60.40
48589;DHT22;34369;51.174;6.738;2023-10-31T11:16:41;14.60;61.30
48589;DHT22;34369;51.174;6.738;2023-10-31T11:20:05;14.70;60.50
48589;DHT22;34369;51.174;6.738;2023-10-31T11:22:55;14.70;60.00
48589;DHT22;34369;51.174;6.738;2023-10-31T11:25:52;14.60;60.50
48589;DHT22;34369;51.174;6.738;2023-10-31T11:28:28;14.50;60.70
48589;DHT22;34369;51.174;6.738;2023-10-31T11:31:45;14.50;60.50
48589;DHT22;34369;51.174;6.738;2023-10-31T11:34:25;14.40;60.10
48589;DHT22;34369;51.174;6.738;2023-10-31T11:38:00;14.40;60.40
48589;DHT22;34369;51.174;6.738;2023-10-31T11:41:48;14.30;60.20
48589;DHT22;34369;51.174;6.738;2023-10-31T11:44:59;14.20;60.30
48589;DHT22;34369;51.174;6.738;2023-10-31T11:48:09;14.10;60.10
48589;DHT22;34369;51.174;6.738;2023-10-31T12:06:10;13.90;60.20
48589;DHT22;34369;51.174;6.738;2023-10-31T12:09:02;13.80;60.80
48589;DHT22;34369;51.174;6.738;2023-10-31T12:12:16;13.70;60.70
48589;DHT22;34369;51.174;6.738;2023-10-31T12:15:16;13.70;60.40
48589;DHT22;34369;51.174;6.738;2023-10-31T12:18:32;13.60;60.00
48589;DHT22;34369;51.174;6.738;2023-10-31T12:21:48;13.60;60.50
48589;DHT22;34369;51.174;6.738;2023-10-31T12:24:30;13.60;61.20
48589;DHT22;34369;51.174;6.738;2023-10-31T12:27:26;13.60;61.40
48589;DHT22;34369;51.174;6.738;2023-10-31T12:30:21;13.60;61.20
48589;DHT22;34369;51.174;6.738;2023-10-31T12:33:07;13.60;62.10
48589;DHT22;34369;51.174;6.738;2023-10-31T12:36:31;13.60;61.50
48589;DHT22;34369;51.174;6.738;2023-10-31T12:39:24;13.60;61.40
48589;DHT22;34369;51.174;6.738;2023-10-31T12:42:07;13.60;61.30
48589;DHT22;34369;51.174;6.738;2023-10-31T12:45:06;13.70;61.90
48589;DHT22;34369;51.174;6.738;2023-10-31T12:51:33;13.80;61.90
48589;DHT22;34369;51.174;6.738;2023-10-31T12:54:53;13.90;62.50
48589;DHT22;34369;51.174;6.738;2023-10-31T12:58:00;14.00;61.80
48589;DHT22;34369;51.174;6.738;2023-10-31T13:00:48;14.00;61.60
48589;DHT22;34369;51.174;6.738;2023-10-31T13:03:26;14.10;61.90
48589;DHT22;34369;51.174;6.738;2023-10-31T13:06:18;14.10;61.50
48589;DHT22;34369;51.174;6.738;2023-10-31T13:08:56;14.20;60.90
48589;DHT22;34369;51.174;6.738;2023-10-31T13:11:41;14.20;61.70
48589;DHT22;34369;51.174;6.738;2023-10-31T13:14:17;14.20;61.00
48589;DHT22;34369;51.174;6.738;2023-10-31T13:17:05;14.30;61.00
48589;DHT22;34369;51.174;6.738;2023-10-31T13:19:49;14.30;60.50
48589;DHT22;34369;51.174;6.738;2023-10-31T13:22:30;14.30;60.20
48589;DHT22;34369;51.174;6.738;2023-10-31T13:25:08;14.30;59.70
48589;DHT22;34369;51.174;6.738;2023-10-31T13:28:10;14.30;60.50
48589;DHT22;34369;51.174;6.738;2023-10-31T13:30:51;14.40;60.10
48589;DHT22;34369;51.174;6.738;2023-10-31T13:33:28;14.40;60.70
48589;DHT22;34369;51.174;6.738;2023-10-31T13:36:08;14.40;60.60
48589;DHT22;34369;51.174;6.738;2023-10-31T13:42:40;14.50;59.80
48589;DHT22;34369;51.174;6.738;2023-10-31T13:45:19;14.50;59.90
48589;DHT22;34369;51.174;6.738;2023-10-31T13:47:56;14.50;59.90
48589;DHT22;34369;51.174;6.738;2023-10-31T13:50:31;14.50;59.20
48589;DHT22;34369;51.174;6.738;2023-10-31T13:53:06;14.50;59.40
48589;DHT22;34369;51.174;6.738;2023-10-31T13:55:44;14.50;59.20
48589;DHT22;34369;51.174;6.738;2023-10-31T13:58:20;14.50;59.40
48589;DHT22;34369;51.174;6.738;2023-10-31T14:00:55;14.50;59.80
48589;DHT22;34369;51.174;6.738;2023-10-31T14:03:30;14.50;59.70
48589;DHT22;34369;51.174;6.738;2023-10-31T14:06:08;14.50;59.80
48589;DHT22;34369;51.174;6.738;2023-10-31T14:09:00;14.50;59.40
48589;DHT22;34369;51.174;6.738;2023-10-31T14:15:53;14.40;59.10
48589;DHT22;34369;51.174;6.738;2023-10-31T14:18:36;14.40;58.70
48589;DHT22;34369;51.174;6.738;2023-10-31T14:21:14;14.30;58.90
48589;DHT22;34369;51.174;6.738;2023-10-31T14:23:50;14.30;58.90
48589;DHT22;34369;51.174;6.738;2023-10-31T14:26:24;14.20;59.20
48589;DHT22;34369;51.174;6.738;2023-10-31T14:28:57;14.10;59.50
48589;DHT22;34369;51.174;6.738;2023-10-31T14:31:29;14.10;59.40
48589;DHT22;34369;51.174;6.738;2023-10-31T14:34:02;14.00;59.70
48589;DHT22;34369;51.174;6.738;2023-10-31T14:36:36;14.00;59.40
48589;DHT22;34369;51.174;6.738;2023-10-31T14:39:08;13.90;59.40
48589;DHT22;34369;51.174;6.738;2023-10-31T14:41:40;13.90;59.60
48589;DHT22;34369;51.174;6.738;2023-10-31T14:44:14;13.90;59.40
48589;DHT22;34369;51.174;6.738;2023-10-31T14:46:46;13.90;59.70
48589;DHT22;34369;51.174;6.738;2023-10-31T14:49:18;13.90;59.90
48589;DHT22;34369;51.174;6.738;2023-10-31T14:51:51;13.80;60.00
48589;DHT22;34369;51.174;6.738;2023-10-31T14:54:23;13.80;60.10
48589;DHT22;34369;51.174;6.738;2023-10-31T14:56:55;13.70;60.30
48589;DHT22;34369;51.174;6.738;2023-10-31T14:59:28;13.70;60.20
48589;DHT22;34369;51.174;6.738;2023-10-31T15:02:00;13.70;60.20
48589;DHT22;34369;51.174;6.738;2023-10-31T15:04:32;13.70;60.10
48589;DHT22;34369;51.174;6.738;2023-10-31T15:07:04;13.70;60.30
48589;DHT22;34369;51.174;6.738;2023-10-31T15:09:36;13.70;60.40
48589;DHT22;34369;51.174;6.738;2023-10-31T15:12:08;13.70;60.30
48589;DHT22;34369;51.174;6.738;2023-10-31T15:14:42;13.70;60.20
48589;DHT22;34369;51.174;6.738;2023-10-31T15:17:13;13.70;60.40
48589;DHT22;34369;51.174;6.738;2023-10-31T15:19:45;13.60;60.40
48589;DHT22;34369;51.174;6.738;2023-10-31T15:24:49;13.60;60.50
48589;DHT22;34369;51.174;6.738;2023-10-31T15:27:28;13.60;60.50
48589;DHT22;34369;51.174;6.738;2023-10-31T15:30:05;13.60;60.70
48589;DHT22;34369;51.174;6.738;2023-10-31T15:32:41;13.60;60.80
48589;DHT22;34369;51.174;6.738;2023-10-31T15:35:19;13.50;60.90
48589;DHT22;34369;51.174;6.738;2023-10-31T15:37:57;13.50;60.90
48589;DHT22;34369;51.174;6.738;2023-10-31T15:40:37;13.50;61.00
48589;DHT22;34369;51.174;6.738;2023-10-31T15:43:14;13.50;61.20
48589;DHT22;34369;51.174;6.738;2023-10-31T15:45:52;13.40;61.30
48589;DHT22;34369;51.174;6.738;2023-10-31T15:48:31;13.40;61.50
48589;DHT22;34369;51.174;6.738;2023-10-31T15:51:09;13.40;61.60
48589;DHT22;34369;51.174;6.738;2023-10-31T15:53:46;13.30;61.50
48589;DHT22;34369;51.174;6.738;2023-10-31T15:56:46;13.30;61.60
48589;DHT22;34369;51.174;6.738;2023-10-31T15:59:43;13.30;61.70
48589;DHT22;34369;51.174;6.738;2023-10-31T16:02:24;13.30;62.00
48589;DHT22;34369;51.174;6.738;2023-10-31T16:05:02;13.20;62.10
48589;DHT22;34369;51.174;6.738;2023-10-31T16:07:44;13.10;62.40
48589;DHT22;34369;51.174;6.738;2023-10-31T16:10:32;13.10;62.70
48589;DHT22;34369;51.174;6.738;2023-10-31T16:13:44;13.00;63.10
48589;DHT22;34369;51.174;6.738;2023-10-31T16:16:21;12.90;63.70
48589;DHT22;34369;51.174;6.738;2023-10-31T16:18:58;12.90;63.60
48589;DHT22;34369;51.174;6.738;2023-10-31T16:22:07;12.80;63.80
48589;DHT22;34369;51.174;6.738;2023-10-31T16:24:48;12.70;64.40
48589;DHT22;34369;51.174;6.738;2023-10-31T16:27:35;12.70;64.30
48589;DHT22;34369;51.174;6.738;2023-10-31T16:30:16;12.60;64.90
48589;DHT22;34369;51.174;6.738;2023-10-31T16:32:49;12.50;64.70
48589;DHT22;34369;51.174;6.738;2023-10-31T16:35:21;12.50;64.80
48589;DHT22;34369;51.174;6.738;2023-10-31T16:37:55;12.50;65.20
48589;DHT22;34369;51.174;6.738;2023-10-31T16:40:29;12.40;65.50
48589;DHT22;34369;51.174;6.738;2023-10-31T16:43:02;12.40;65.80
48589;DHT22;34369;51.174;6.738;2023-10-31T16:45:36;12.30;66.00
48589;DHT22;34369;51.174;6.738;2023-10-31T16:48:09;12.30;66.20
48589;DHT22;34369;51.174;6.738;2023-10-31T16:50:41;12.30;66.30
48589;DHT22;34369;51.174;6.738;2023-10-31T16:53:14;12.30;66.50
48589;DHT22;34369;51.174;6.738;2023-10-31T16:55:48;12.20;66.60
48589;DHT22;34369;51.174;6.738;2023-10-31T16:58:22;12.20;66.70
48589;DHT22;34369;51.174;6.738;2023-10-31T17:00:56;12.20;66.90
48589;DHT22;34369;51.174;6.738;2023-10-31T17:03:28;12.20;67.00
48589;DHT22;34369;51.174;6.738;2023-10-31T17:06:02;12.10;67.20
48589;DHT22;34369;51.174;6.738;2023-10-31T17:08:36;12.10;67.40
48589;DHT22;34369;51.174;6.738;2023-10-31T17:11:08;12.10;67.50
48589;DHT22;34369;51.174;6.738;2023-10-31T17:13:41;12.10;67.50
48589;DHT22;34369;51.174;6.738;2023-10-31T17:16:15;12.10;67.70
48589;DHT22;34369;51.174;6.738;2023-10-31T17:18:48;12.10;67.80
48589;DHT22;34369;51.174;6.738;2023-10-31T17:21:21;12.10;67.70
48589;DHT22;34369;51.174;6.738;2023-10-31T17:23:54;12.00;67.70
48589;DHT22;34369;51.174;6.738;2023-10-31T17:26:27;12.00;67.70
48589;DHT22;34369;51.174;6.738;2023-10-31T17:28:59;12.00;67.80
48589;DHT22;34369;51.174;6.738;2023-10-31T17:31:38;12.00;67.70
48589;DHT22;34369;51.174;6.738;2023-10-31T17:34:13;11.90;67.80
48589;DHT22;34369;51.174;6.738;2023-10-31T17:36:46;11.90;67.80
48589;DHT22;34369;51.174;6.738;2023-10-31T17:39:20;11.90;67.90
48589;DHT22;34369;51.174;6.738;2023-10-31T17:41:52;11.90;68.00
48589;DHT22;34369;51.174;6.738;2023-10-31T17:44:25;11.80;68.10
48589;DHT22;34369;51.174;6.738;2023-10-31T17:47:00;11.80;68.20
48589;DHT22;34369;51.174;6.738;2023-10-31T17:49:35;11.80;68.30
48589;DHT22;34369;51.174;6.738;2023-10-31T17:52:08;11.80;68.40
48589;DHT22;34369;51.174;6.738;2023-10-31T17:54:41;11.70;68.50
48589;DHT22;34369;51.174;6.738;2023-10-31T17:57:13;11.70;68.50
48589;DHT22;34369;51.174;6.738;2023-10-31T17:59:49;11.70;68.50
48589;DHT22;34369;51.174;6.738;2023-10-31T18:02:24;11.70;68.60
48589;DHT22;34369;51.174;6.738;2023-10-31T18:04:58;11.80;68.60
48589;DHT22;34369;51.174;6.738;2023-10-31T18:07:32;11.70;68.70
48589;DHT22;34369;51.174;6.738;2023-10-31T18:10:06;11.70;68.70
48589;DHT22;34369;51.174;6.738;2023-10-31T18:12:40;11.70;68.70
48589;DHT22;34369;51.174;6.738;2023-10-31T18:15:14;11.70;68.70
48589;DHT22;34369;51.174;6.738;2023-10-31T18:17:48;11.70;68.80
48589;DHT22;34369;51.174;6.738;2023-10-31T18:20:21;11.70;68.90
48589;DHT22;34369;51.174;6.738;2023-10-31T18:22:53;11.70;68.80
48589;DHT22;34369;51.174;6.738;2023-10-31T18:25:26;11.70;68.80